20° challenge de l'entité sonégienne - 2015


Challenge Soignies 2015

Soignies - 2° corrida du marché de Noël - 2015

Dénomination   Soignies - 2° corrida du marché de Noël - 2015   9 kms
Date   samedi 19 décembre 2015  
Adresse  Hall omnisport Pierre Dupont
 Rue de Cognebeau
 7060 Soignies
    Voir carte d'accès
Contact

 Olivier Trigallez

  

   067/347.343
Courses  9 kms
 5 kms
 
 
Inscriptions    
Parcours    Parcours asphalté. Course urbaine.  

        Palmares de la course :

Course

Catégorie

Vainqueur

9 kms Espoirs VANDERLINDEN Henri NICAISE Laurent COUSTRY Quentin
9 kms Seniors VALLEE François STILITE Yoann COUGNEAU Vincent
9 kms Vétérans 1 DUPONT Eddy BRIFFEUIL Olivier VERMEULEN Laurent
9 kms Vétérans 2 VAN DER HOEVEN Marc LOUVRIER Pierre FOURMANOIR Jean-Marie
9 kms Vétérans 3 DEJONG Daniel PIRET Paul COUGNEAU Bruno
9 kms Vétérans 4 LELANGUE José SEL Michel ERAERTS Willy
9 kms Jeunes Filles BASTIEN Laurence
9 kms Dames VERMEIR Wendy DEWAELE Aline PIRRERA Amélie
9 kms Aînées 1 VRAY Valérie TURCK Pascale LAMBRET Christelle
9 kms Aînées 2 THEATE Françoise PIERRARD Christelle BAKRIM Fatima
9 kms Aînées 3 VEKEMAN Bernadette SCHOUPPE Anita SPARKS Marty
5 kms Messieurs VALET Maxime SCRUFARI Jérôme LUCION Alexandre
5 kms Dames ROUSSEAU Clara SOLAGNA Manon DENAYER Marinne
Course : 9 kms
Document PDF de la course
Pla. Pl.Cat Dossard Nom                       Catégorie     Temps     Course   Vitesse Min/Km
_____________________________________________________________________________________________
1 1 111 VAN DER HOEVEN Marc Vétérans 2 00:31:27 9 kms 17.551 3:25
2 1 6012 DUPONT Eddy Vétérans 1 00:31:37 9 kms 17.459 3:26
3 1 99 VALLEE François Seniors 00:31:40 9 kms 17.431 3:26
4 2 171 STILITE Yoann Seniors 00:33:15 9 kms 16.601 3:36
5 1 213 VANDERLINDEN Henri Espoirs 00:33:17 9 kms 16.584 3:37
6 3 256 COUGNEAU Vincent Seniors 00:33:19 9 kms 16.568 3:37
7 2 153 NICAISE Laurent Espoirs 00:33:21 9 kms 16.551 3:37
8 2 208 BRIFFEUIL Olivier Vétérans 1 00:33:24 9 kms 16.526 3:37
9 4 14 FOUSS François Seniors 00:33:26 9 kms 16.510 3:38
10 5 233 MULPAS Cédric Seniors 00:33:30 9 kms 16.477 3:38
11 3 202 VERMEULEN Laurent Vétérans 1 00:34:04 9 kms 16.203 3:42
12 4 178 DEFRISE Grégory Vétérans 1 00:34:24 9 kms 16.046 3:44
13 6 176 HELIN François Seniors 00:35:04 9 kms 15.741 3:48
14 7 172 CROTE Nicolas Seniors 00:35:06 9 kms 15.726 3:48
15 8 168 FRANCOIS Benoît Seniors 00:35:08 9 kms 15.711 3:49
16 1 70 DEJONG Daniel Vétérans 3 00:35:10 9 kms 15.696 3:49
17 5 240 MARCHESE Fabian Vétérans 1 00:35:14 9 kms 15.666 3:49
18 9 169 DEGAVRE Thibaut Seniors 00:35:18 9 kms 15.637 3:50
19 10 180 DUFRANE Cyril Seniors 00:35:32 9 kms 15.534 3:51
20 11 162 LETE Loïc Seniors 00:35:55 9 kms 15.368 3:54
21 12 242 RIGUTTO Simon Seniors 00:35:59 9 kms 15.340 3:54
22 6 81 DOCLOT Frédéric Vétérans 1 00:36:19 9 kms 15.199 3:56
23 7 129 LEFEVRE Hugues Vétérans 1 00:36:21 9 kms 15.185 3:57
24 2 201 LOUVRIER Pierre Vétérans 2 00:36:23 9 kms 15.171 3:57
25 8 207 FRECOURT Xavier Vétérans 1 00:36:25 9 kms 15.157 3:57
26 3 118 FOURMANOIR Jean-Marie Vétérans 2 00:36:31 9 kms 15.116 3:58
27 9 76 ROUSSEAU Raymond Vétérans 1 00:36:38 9 kms 15.068 3:58
28 4 63 TEGAS Giovanni Vétérans 2 00:36:41 9 kms 15.047 3:59
29 10 108 POMILIO Nicola Vétérans 1 00:36:44 9 kms 15.027 3:59
30 13 74 WISEUR Alexis Seniors 00:36:45 9 kms 15.020 3:59
31 14 183 DESSILLY Nicolas Seniors 00:36:50 9 kms 14.986 4:00
32 5 179 GIUNTA Santo Vétérans 2 00:36:52 9 kms 14.972 4:00
33 15 195 TIDRARINI Hedi Seniors 00:36:55 9 kms 14.952 4:00
34 11 105 RICOUR Hervé Vétérans 1 00:36:57 9 kms 14.939 4:00
35 16 266 RIVART Christophe Seniors 00:36:59 9 kms 14.925 4:01
36 6 219 CARDELLA Gaëtan Vétérans 2 00:37:11 9 kms 14.845 4:02
37 17 72 HERPOEL Nicolas Seniors 00:37:13 9 kms 14.832 4:02
38 18 215 LEROUX Eric Seniors 00:37:25 9 kms 14.752 4:04
39 1 80 THEATE Françoise Aînées 2 00:37:37 9 kms 14.674 4:05 40 12 203 DE CONINCK Benoît Vétérans 1 00:37:46 9 kms 14.616 4:06 41 7 239 MOREAU Eddy Vétérans 2 00:37:59 9 kms 14.532 4:07 42 8 114 BEIGNE Francis Vétérans 2 00:38:18 9 kms 14.412 4:09 43 13 117 DURANT Patrick Vétérans 1 00:38:22 9 kms 14.387 4:10 44 19 244 BAUDOUR Kenny Seniors 00:38:26 9 kms 14.362 4:10 45 20 182 PALUMBIERI Daniel Seniors 00:38:42 9 kms 14.263 4:12 46 21 170 JUNGST David Seniors 00:38:44 9 kms 14.251 4:12 47 2 177 PIERRARD Christelle Aînées 2 00:38:48 9 kms 14.226 4:13 48 14 143 SOGALOW Jean-Marc Vétérans 1 00:38:50 9 kms 14.214 4:13 49 22 132 BOCKLANDT Julian Seniors 00:38:52 9 kms 14.202 4:13 50 23 18 DESCAMPS François Seniors 00:38:55 9 kms 14.184 4:13 51 15 134 DELCORDE Bernard Vétérans 1 00:39:05 9 kms 14.123 4:14 52 16 167 YUMUJAK Hasan Vétérans 1 00:39:19 9 kms 14.039 4:16 53 24 82 DESGAIN Thomas Seniors 00:39:21 9 kms 14.027 4:16 54 17 131 KEDZIERSKI Michel Vétérans 1 00:39:24 9 kms 14.010 4:16 55 25 156 BOSTEM Stéphane Seniors 00:39:28 9 kms 13.986 4:17 56 26 122 MABILLE Olivier Seniors 00:39:41 9 kms 13.910 4:18 57 27 61 ROOSENS Frans Seniors 00:39:42 9 kms 13.904 4:18 58 18 73 HORLAIT Didier Vétérans 1 00:39:44 9 kms 13.892 4:19 59 19 93 EL BOUBKARI Samir Vétérans 1 00:39:47 9 kms 13.875 4:19 60 20 20 PECCENINI Stéphane Vétérans 1 00:39:48 9 kms 13.869 4:19 61 28 58 SERIENS Quentin Seniors 00:39:52 9 kms 13.846 4:20 62 2 137 PIRET Paul Vétérans 3 00:39:57 9 kms 13.817 4:20 63 29 265 NAVEAU Sébastien Seniors 00:39:59 9 kms 13.805 4:20 64 30 112 WERY Alexandre Seniors 00:40:01 9 kms 13.794 4:20 65 9 264 BAUDUIN Elzo Vétérans 2 00:40:04 9 kms 13.777 4:21 66 10 165 HARVYN Alain Vétérans 2 00:40:07 9 kms 13.759 4:21 67 1 152 VERMEIR Wendy Dames 00:40:20 9 kms 13.685 4:23 68 11 135 WILLOCQ Jean-Luc Vétérans 2 00:40:24 9 kms 13.663 4:23 69 21 173 COCHE Philippe Vétérans 1 00:40:27 9 kms 13.646 4:23 70 22 194 DANNEAU Vincent Vétérans 1 00:40:30 9 kms 13.629 4:24 71 23 258 VERDE Michel Vétérans 1 00:40:32 9 kms 13.618 4:24 72 24 147 DENGHIEN Laurent Vétérans 1 00:40:37 9 kms 13.590 4:24 73 12 130 NIS Daniel Vétérans 2 00:40:47 9 kms 13.534 4:25 74 31 271 CHERON Gaëtan Seniors 00:40:51 9 kms 13.512 4:26 75 32 243 DUBOIS Thomas Seniors 00:40:53 9 kms 13.501 4:26 76 3 241 COUSTRY Quentin Espoirs 00:40:58 9 kms 13.474 4:27 77 25 45 NOCITRA Giacomo Vétérans 1 00:40:59 9 kms 13.468 4:27 78 33 47 SEMAILLE Julien Seniors 00:41:03 9 kms 13.447 4:27 79 34 136 DELMOTTE Corentin Seniors 00:41:08 9 kms 13.419 4:28 80 26 226 KENDA Damien Vétérans 1 00:41:10 9 kms 13.408 4:28 81 27 198 BALDARELLI Fabio Vétérans 1 00:41:13 9 kms 13.392 4:28 82 28 77 MAHAUX Frank Vétérans 1 00:41:14 9 kms 13.387 4:28 83 29 12 HORLIN Gaëtan Vétérans 1 00:41:18 9 kms 13.365 4:29 84 35 158 BELFIORE Pietro Seniors 00:41:20 9 kms 13.354 4:29 85 30 91 RUSTIN Fabian Vétérans 1 00:41:25 9 kms 13.327 4:30 86 31 227 BUTTOL Xavier Vétérans 1 00:41:29 9 kms 13.306 4:30 87 36 252 PICHEL Julien Seniors 00:41:31 9 kms 13.295 4:30 88 37 53 DEVERGNIES Christophe Seniors 00:41:36 9 kms 13.269 4:31 89 3 4 BAKRIM Fatima Aînées 2 00:41:39 9 kms 13.253 4:31 90 32 3 SPEMANS Christophe Vétérans 1 00:41:40 9 kms 13.248 4:31 91 38 95 HOST Arthur Seniors 00:41:42 9 kms 13.237 4:31 92 33 88 VOLINO Fabrizio Vétérans 1 00:41:46 9 kms 13.216 4:32 93 13 197 ALESSI Antonio Vétérans 2 00:41:53 9 kms 13.179 4:33 94 39 31 GALLUCIO Gaël Seniors 00:41:55 9 kms 13.168 4:33 95 3 255 COUGNEAU Bruno Vétérans 3 00:42:02 9 kms 13.132 4:34 96 14 181 LEPAPE Alain Vétérans 2 00:42:08 9 kms 13.101 4:34 97 40 42 DUPONT Nicolas Seniors 00:42:09 9 kms 13.096 4:34 98 1 85 VRAY Valérie Aînées 1 00:42:11 9 kms 13.085 4:35 99 15 84 HORLAIT Jean-Luc Vétérans 2 00:42:13 9 kms 13.075 4:35 100 16 68 FONTESSE Michaël Vétérans 2 00:42:21 9 kms 13.034 4:36 101 41 32 MEYVISCH Jean-Christophe Seniors 00:42:38 9 kms 12.947 4:38 102 42 36 DOUCHAMPS Frédéric Seniors 00:42:40 9 kms 12.937 4:38 103 34 116 ROLAND Benoît Vétérans 1 00:42:43 9 kms 12.922 4:38 104 35 249 HOST Vincent Vétérans 1 00:42:45 9 kms 12.912 4:38 105 43 106 BLEUS Xavier Seniors 00:42:50 9 kms 12.887 4:39 106 36 269 LEKIME Alain Vétérans 1 00:43:05 9 kms 12.812 4:40 107 17 67 DEMINNE Thierry Vétérans 2 00:43:22 9 kms 12.728 4:42 108 18 161 WATTIEZ Didier Vétérans 2 00:43:27 9 kms 12.704 4:43 109 44 26 FRAITURE Thomas Seniors 00:43:29 9 kms 12.694 4:43 110 4 166 MURATORE Salvatore Vétérans 3 00:43:31 9 kms 12.684 4:43 111 45 2 LEFEBVRE Pascal Seniors 00:43:32 9 kms 12.679 4:43 112 19 199 D'ADDABBO Oronzo Vétérans 2 00:43:35 9 kms 12.665 4:44 113 37 113 WERY Frédéric Vétérans 1 00:43:37 9 kms 12.655 4:44 114 1 13 LELANGUE José Vétérans 4 00:43:38 9 kms 12.650 4:44 115 38 151 DRUART Stéphane Vétérans 1 00:43:42 9 kms 12.631 4:45 116 39 23 LEWILLION Philippe Vétérans 1 00:43:44 9 kms 12.621 4:45 117 4 24 KOOB Marie-Cécile Aînées 2 00:43:46 9 kms 12.612 4:45 118 46 46 NEUFNET Jérôme Seniors 00:43:49 9 kms 12.597 4:45 119 20 150 VERSCHOORE Rudy Vétérans 2 00:43:53 9 kms 12.578 4:46 120 40 250 LEGRAND Benoît Vétérans 1 00:43:56 9 kms 12.564 4:46 121 47 103 QUENSTER Sébastien Seniors 00:43:58 9 kms 12.554 4:46 122 2 235 TURCK Pascale Aînées 1 00:44:01 9 kms 12.540 4:47 123 21 75 BERDOUX Jacques Vétérans 2 00:44:02 9 kms 12.535 4:47 124 41 259 ABRAHAM Michel Vétérans 1 00:44:05 9 kms 12.521 4:47 125 5 6005 MARSILLE Thierry Vétérans 3 00:44:07 9 kms 12.512 4:47 126 48 29 THYS Laurent Seniors 00:44:09 9 kms 12.502 4:47 127 6 98 EYLENBOSCH Gaston Vétérans 3 00:44:12 9 kms 12.488 4:48 128 49 196 DELATTRE Arnaud Seniors 00:44:14 9 kms 12.479 4:48 129 50 21 HUART Daniel Seniors 00:44:16 9 kms 12.469 4:48 130 42 205 KIESECOMS Pascal Vétérans 1 00:44:18 9 kms 12.460 4:48 131 51 22 HOCQUET Stéphane Seniors 00:44:20 9 kms 12.451 4:49 132 52 49 DE CONINCK Benoît Seniors 00:44:22 9 kms 12.441 4:49 133 2 66 SEL Michel Vétérans 4 00:44:25 9 kms 12.427 4:49 134 53 222 MULLIER Nicolas Seniors 00:44:28 9 kms 12.413 4:50 135 2 232 DEWAELE Aline Dames 00:44:30 9 kms 12.404 4:50 136 54 160 COULON Maxime Seniors 00:44:43 9 kms 12.344 4:51 137 55 234 RASSART Julien Seniors 00:44:45 9 kms 12.335 4:51 138 43 251 LAURENT Patrick Vétérans 1 00:44:48 9 kms 12.321 4:52 139 56 128 DE HENAU Fabian Seniors 00:44:50 9 kms 12.312 4:52 140 22 126 DENAYER Vincent Vétérans 2 00:44:53 9 kms 12.298 4:52 141 44 86 LIVIAU Emmanuel Vétérans 1 00:44:59 9 kms 12.271 4:53 142 23 200 DELEU Patrick Vétérans 2 00:45:04 9 kms 12.248 4:53 143 4 214 LEROUX Amaury Espoirs 00:45:21 9 kms 12.171 4:55 144 57 10 LAMBERT Frédéric Seniors 00:45:23 9 kms 12.163 4:55 145 45 90 ARNOULD David Vétérans 1 00:45:31 9 kms 12.127 4:56 146 24 7 SPITALERI Mario Vétérans 2 00:45:33 9 kms 12.118 4:57 147 25 236 MANGANO Nino Vétérans 2 00:45:36 9 kms 12.105 4:57 148 58 270 LIEPIN Max Seniors 00:45:38 9 kms 12.096 4:57 149 1 125 VEKEMAN Bernadette Aînées 3 00:45:40 9 kms 12.087 4:57 150 5 212 DEMEULENAERE Sophie Aînées 2 00:45:43 9 kms 12.074 4:58 151 59 174 DEFER Jean-Claude Seniors 00:45:46 9 kms 12.061 4:58 152 26 209 DEREUME Pascal Vétérans 2 00:45:48 9 kms 12.052 4:58 153 60 25 DUQUESNE Stéphane Seniors 00:45:49 9 kms 12.048 4:58 154 7 204 VINCENT Albert Vétérans 3 00:45:57 9 kms 12.013 4:59 155 61 92 RUSTIN Julien Seniors 00:45:59 9 kms 12.004 4:59 156 27 110 MADARASZ Philippe Vétérans 2 00:46:05 9 kms 11.978 5:00 157 62 100 MICHIELON Gianni Seniors 00:46:13 9 kms 11.943 5:01 158 63 44 APRILE Michaël Seniors 00:46:27 9 kms 11.883 5:02 159 64 123 STAMATIOU Bruno Seniors 00:46:30 9 kms 11.870 5:03 160 6 246 LECLERCQ Véronique Aînées 2 00:46:34 9 kms 11.853 5:03 161 65 192 BOURLARD Christophe Seniors 00:46:36 9 kms 11.845 5:03 162 3 50 ERAERTS Willy Vétérans 4 00:46:39 9 kms 11.832 5:04 163 66 35 BARBIER Frédéric Seniors 00:46:43 9 kms 11.815 5:04 164 67 229 CARLIER Joël Seniors 00:46:53 9 kms 11.773 5:05 165 3 1 LAMBRET Christelle Aînées 1 00:47:03 9 kms 11.732 5:06 166 28 115 IZZARELLI Donato Vétérans 2 00:47:07 9 kms 11.715 5:07 167 29 140 BOUGLIONE Luigi Vétérans 2 00:47:09 9 kms 11.707 5:07 168 4 230 BOUCQ Mylène Aînées 1 00:47:12 9 kms 11.694 5:07 169 46 231 MAHIEU Eddy Vétérans 1 00:47:14 9 kms 11.686 5:08 170 3 155 PIRRERA Amélie Dames 00:47:17 9 kms 11.674 5:08 171 47 218 VAN DEN BERG Frédéric Vétérans 1 00:47:35 9 kms 11.600 5:10 172 30 97 GODART Jacques Vétérans 2 00:47:46 9 kms 11.556 5:11 173 4 79 GUISSET Marc Vétérans 4 00:47:54 9 kms 11.524 5:12 174 68 65 PETIT Vincent Seniors 00:48:30 9 kms 11.381 5:16 175 8 261 QUERTAINMONT Philippe Vétérans 3 00:48:32 9 kms 11.373 5:16 176 48 27 DELBUSHAYE Benoît Vétérans 1 00:48:34 9 kms 11.365 5:16 177 31 267 LEMAIRE Vincent Vétérans 2 00:48:37 9 kms 11.354 5:17 178 4 30 HOUBA Isabelle Dames 00:48:46 9 kms 11.319 5:18 179 32 216 RONDEAU Philippe Vétérans 2 00:48:48 9 kms 11.311 5:18 180 69 104 DEWINNE Julien Seniors 00:49:11 9 kms 11.223 5:20 181 33 253 SPAGNUOLO Angelo Vétérans 2 00:49:14 9 kms 11.211 5:21 182 70 37 LOMBA Christophe Seniors 00:49:20 9 kms 11.189 5:21 183 71 33 BURTON Pierre Seniors 00:49:21 9 kms 11.185 5:21 184 72 254 SINE Benoît Seniors 00:49:29 9 kms 11.155 5:22 185 9 38 PAYEN Pierre Vétérans 3 00:49:31 9 kms 11.147 5:22 186 7 127 DEMAIN Corinne Aînées 2 00:49:34 9 kms 11.136 5:23 187 34 6001 MICHEL Christophe Vétérans 2 00:49:42 9 kms 11.106 5:24 188 10 107 MESTER Marcel Vétérans 3 00:49:44 9 kms 11.099 5:24 189 11 78 PESTIAUX Yves Vétérans 3 00:49:47 9 kms 11.088 5:24 190 5 248 LECLERCQ Gaëlle Dames 00:49:55 9 kms 11.058 5:25 191 12 185 DEKHLI Kamal Vétérans 3 00:49:58 9 kms 11.047 5:25 192 13 263 LECOMTE Freddy Vétérans 3 00:50:18 9 kms 10.974 5:28 193 49 220 LIBERT Yvan Vétérans 1 00:50:26 9 kms 10.945 5:28 194 50 52 CLOMPEN Frédéric Vétérans 1 00:50:31 9 kms 10.927 5:29 195 51 56 PENSEZ Paul Vétérans 1 00:50:35 9 kms 10.912 5:29 196 14 144 LACOUR Albert Vétérans 3 00:50:42 9 kms 10.887 5:30 197 6 164 VANDERHAEGEN Audrey Dames 00:50:58 9 kms 10.830 5:32 198 73 57 ABOU NOUAIM Karim Seniors 00:51:42 9 kms 10.676 5:37 199 5 149 NITA Doris Aînées 1 00:51:45 9 kms 10.666 5:37 200 5 28 CORDIER Ashley Espoirs 00:51:48 9 kms 10.656 5:37 201 6 43 MANSY Margot Aînées 1 00:51:54 9 kms 10.635 5:38 202 35 186 CICERO Epifanio Vétérans 2 00:52:00 9 kms 10.615 5:39 203 36 138 GULLOTTA Antonino Vétérans 2 00:52:03 9 kms 10.605 5:39 204 52 121 DEGAND François Vétérans 1 00:52:05 9 kms 10.598 5:39 205 6 16 VERBORGH Pierre Espoirs 00:52:10 9 kms 10.581 5:40 206 7 224 LEFEBVRE Pierre Espoirs 00:52:20 9 kms 10.547 5:41 207 53 223 CAUDERLIER Patrick Vétérans 1 00:52:22 9 kms 10.541 5:41 208 37 210 VANDERHAEGEN Christian Vétérans 2 00:52:24 9 kms 10.534 5:41 209 8 217 GAUTHIER Cécile Aînées 2 00:52:30 9 kms 10.514 5:42 210 7 238 COUSSEMENT Valérie Aînées 1 00:52:35 9 kms 10.497 5:42 211 7 48 DENEUMOUSTIER Eve Dames 00:52:38 9 kms 10.487 5:43 212 8 157 VANDENBEMPT Julie Aînées 1 00:53:01 9 kms 10.411 5:45 213 74 54 JABLONSKI Julien Seniors 00:53:07 9 kms 10.392 5:46 214 75 55 HABRAN Pierre-Arnaud Seniors 00:53:09 9 kms 10.385 5:46 215 2 124 SCHOUPPE Anita Aînées 3 00:53:32 9 kms 10.311 5:49 216 8 39 BUCKOVA Barbora Dames 00:53:42 9 kms 10.279 5:50 217 9 17 DELIRE Laurence Aînées 2 00:53:53 9 kms 10.244 5:51 218 76 34 HEINE Sylvain Seniors 00:53:54 9 kms 10.241 5:51 219 3 190 SPARKS Marty Aînées 3 00:53:59 9 kms 10.225 5:52 220 9 83 ROSSAY Judith Dames 00:54:08 9 kms 10.197 5:53 221 38 19 DUPONT André Vétérans 2 00:54:18 9 kms 10.165 5:54 222 39 260 GUTIERREZ Angel Vétérans 2 00:54:22 9 kms 10.153 5:54 223 4 257 NISSENS Christiane Aînées 3 00:54:45 9 kms 10.082 5:57 224 9 146 PIERART Myriam Aînées 1 00:54:56 9 kms 10.048 5:58 225 15 89 TOPART André Vétérans 3 00:54:58 9 kms 10.042 5:58 226 77 94 LEFEBVRE Paulin Seniors 00:55:00 9 kms 10.036 5:58 227 16 142 ESTIEVENART Bernard Vétérans 3 00:55:19 9 kms 9.978 6:00 228 78 154 BELFIORE Giampietro Seniors 00:55:24 9 kms 9.963 6:01 229 79 225 TROCH Julien Seniors 00:55:34 9 kms 9.934 6:02 230 17 96 D'UTAT Jean-Claude Vétérans 3 00:55:43 9 kms 9.907 6:03 231 10 5000 BREDAT Elise Dames 00:55:48 9 kms 9.892 6:03 232 54 268 DAMIEN Denys Vétérans 1 00:55:55 9 kms 9.871 6:04 233 18 6000 LERICHE Thierry Vétérans 3 00:56:04 9 kms 9.845 6:05 234 10 159 BRICOURT Anouck Aînées 1 00:56:06 9 kms 9.839 6:05 235 5 139 GRISLAIN Marcel Vétérans 4 00:56:09 9 kms 9.830 6:06 236 11 59 SERIENS Isabelle Dames 00:56:10 9 kms 9.827 6:06 237 12 60 MALBRECQ Clémence Dames 00:56:12 9 kms 9.822 6:06 238 11 109 TUMIA Tina Aînées 1 00:56:15 9 kms 9.813 6:06 239 19 102 GOMEZ Edouard Vétérans 3 00:56:33 9 kms 9.761 6:08 240 40 237 DEHON Emmanuel Vétérans 2 00:56:40 9 kms 9.741 6:09 241 41 163 VANDERHAEGEN Jacques Vétérans 2 00:56:45 9 kms 9.726 6:10 242 42 71 CUIGNEZ Philippe Vétérans 2 00:56:48 9 kms 9.718 6:10 243 5 69 LECLERCQ Monique Aînées 3 00:56:49 9 kms 9.715 6:10 244 1 62 BASTIEN Laurence Jeunes Filles 00:56:53 9 kms 9.704 6:10 245 43 101 RENARD Jacques Vétérans 2 00:56:55 9 kms 9.698 6:11 246 55 15 VERBORGH Laurent Vétérans 1 00:57:01 9 kms 9.681 6:11 247 44 206 CREYF Serge Vétérans 2 00:57:35 9 kms 9.586 6:15 248 12 119 DECAMPS Stéphanie Aînées 1 00:57:38 9 kms 9.577 6:15 249 13 9 MEIRHAEGHE Ann Aînées 1 00:57:40 9 kms 9.572 6:16 250 45 64 DE VRIENDT Benoît Vétérans 2 00:58:20 9 kms 9.462 6:20 251 20 211 LAFFINEUR Christian Vétérans 3 00:58:24 9 kms 9.452 6:20 252 14 51 MESSELIS Sabrina Aînées 1 00:58:54 9 kms 9.371 6:24 253 56 148 CONTINO Philippe Vétérans 1 00:59:21 9 kms 9.300 6:27 254 21 145 RICHARD Bernard Vétérans 3 00:59:24 9 kms 9.292 6:27 255 15 141 BISSIN Anne Aînées 1 00:59:37 9 kms 9.259 6:28 256 80 245 D'HULSTER Nicolas Seniors 00:59:40 9 kms 9.251 6:29 257 81 247 LAUWERS Cédric Seniors 00:59:42 9 kms 9.246 6:29 258 13 228 MARCOU Angélique Dames 00:59:46 9 kms 9.235 6:29 259 14 87 PERE Amélie Dames 00:59:55 9 kms 9.212 6:30 260 6 191 TORFS Christine Aînées 3 01:01:22 9 kms 8.995 6:40 261 46 175 LUCION Vincent Vétérans 2 01:01:28 9 kms 8.980 6:40 262 16 8 TENNSTEDT Violaine Aînées 1 01:01:30 9 kms 8.975 6:41 263 15 5001 HAUBE Marie Dames 01:01:58 9 kms 8.908 6:44 264 82 5002 LAVEND'HOMME Thomas Seniors 01:02:00 9 kms 8.903 6:44 265 83 40 TESTA Renato Seniors 01:02:33 9 kms 8.824 6:47 266 84 41 HENNEKENS Gilles Seniors 01:02:35 9 kms 8.820 6:48 267 10 193 DELHAYE Nadia Aînées 2 01:03:00 9 kms 8.761 6:50 268 57 262 DUPRES Philippe Vétérans 1 01:03:08 9 kms 8.743 6:51 269 47 5 RENARD Patrick Vétérans 2 01:03:32 9 kms 8.688 6:54 270 85 120 DEGAND Vincent Seniors 01:04:53 9 kms 8.507 7:03 271 16 133 NACTERGAL Marie Dames 01:05:35 9 kms 8.416 7:07 272 17 188 ROLAND Coralie Dames 01:05:36 9 kms 8.414 7:07 273 18 187 ROLAND Amélie Dames 01:05:37 9 kms 8.412 7:07 274 58 189 ROLAND Philippe Vétérans 1 01:05:38 9 kms 8.410 7:08 275 22 221 GEOFFROY Patrick Vétérans 3 01:13:49 9 kms 7.477 8:01
Course : 5 kms
Document PDF de la course
Pla. Pl.Cat Dossard Nom                       Catégorie     Temps     Course   Vitesse Min/Km
_____________________________________________________________________________________________
1 1 505 VALET Maxime Messieurs 00:17:25 5 kms 17.224 3:29
2 2 553 SCRUFARI Jérôme Messieurs 00:17:55 5 kms 16.744 3:35
3 3 589 LUCION Alexandre Messieurs 00:18:23 5 kms 16.319 3:40
4 4 530 D'AURILIO Marvin Messieurs 00:18:50 5 kms 15.929 3:46
5 5 531 D'AURILIO Siméon Messieurs 00:18:52 5 kms 15.901 3:46
6 6 577 DUMONT Rémy Messieurs 00:18:55 5 kms 15.859 3:47
7 7 557 FOURMANOIR Michaël Messieurs 00:19:08 5 kms 15.679 3:49
8 8 536 TACNIERE Joachim Messieurs 00:19:52 5 kms 15.100 3:58
9 9 587 CECI ARMANDO Messieurs 00:20:03 5 kms 14.962 4:00
10 10 580 STILITE Mikaël Messieurs 00:20:36 5 kms 14.563 4:07
11 11 591 FORTUNATO Italo Messieurs 00:20:39 5 kms 14.527 4:07
12 12 576 CAUWEZ Aurélien Messieurs 00:20:54 5 kms 14.354 4:10
13 13 508 CLEYMANS Jason Messieurs 00:21:36 5 kms 13.888 4:19
14 14 573 MENUGE Marc Messieurs 00:21:43 5 kms 13.814 4:20
15 15 593 VERMEULEN Elliot Messieurs 00:22:45 5 kms 13.186 4:33
16 16 575 MICHEL Fabricio Messieurs 00:22:47 5 kms 13.167 4:33
17 17 611 CHAPUIS Christophe Messieurs 00:23:01 5 kms 13.034 4:36
18 18 610 FERNEZ Benjamin Messieurs 00:23:03 5 kms 13.015 4:36
19 19 594 BRUSTEN Charles Messieurs 00:23:20 5 kms 12.857 4:40
20 1 527 ROUSSEAU Clara Dames 00:23:26 5 kms 12.802 4:41 21 2 519 SOLAGNA Manon Dames 00:23:40 5 kms 12.676 4:44 22 20 526 HERPOEL Robin Messieurs 00:24:16 5 kms 12.362 4:51 23 3 558 DENAYER Marinne Dames 00:24:32 5 kms 12.228 4:54 24 21 506 DUQUESNE Loann Messieurs 00:24:44 5 kms 12.129 4:56 25 22 552 THIENPONT Martin Messieurs 00:24:59 5 kms 12.008 4:59 26 23 184 MASTROMARINO Antonio Messieurs 00:25:04 5 kms 11.968 5:00 27 24 603 THUNUS Jean-Philippe Messieurs 00:25:07 5 kms 11.944 5:01 28 25 598 CUVELIER Samuel Messieurs 00:25:36 5 kms 11.718 5:07 29 26 521 SCARMURE Loann Messieurs 00:25:39 5 kms 11.695 5:07 30 27 514 NICAISE Hugo Messieurs 00:25:43 5 kms 11.665 5:08 31 28 548 BLAIRON Daniel Messieurs 00:25:47 5 kms 11.635 5:09 32 29 563 LENVAIN Jean-François Messieurs 00:25:52 5 kms 11.597 5:10 33 4 562 LEE Li Dames 00:25:54 5 kms 11.583 5:10 34 30 581 NIGAUT Jean-Pierre Messieurs 00:26:08 5 kms 11.479 5:13 35 5 510 HOEBEKE Emilie Dames 00:26:20 5 kms 11.392 5:16 36 31 6016 DURIEU Christophe Messieurs 00:26:23 5 kms 11.370 5:16 37 32 600 SADIN Serge Messieurs 00:26:26 5 kms 11.349 5:17 38 33 516 DUPONT Cyril Messieurs 00:26:37 5 kms 11.271 5:19 39 34 525 HERPOEL Thibaut Messieurs 00:26:39 5 kms 11.257 5:19 40 6 512 GAMME Doriane Dames 00:26:45 5 kms 11.214 5:21 41 35 549 HACKING Romain Messieurs 00:26:48 5 kms 11.194 5:21 42 36 560 HERPIN Lenny Messieurs 00:26:53 5 kms 11.159 5:22 43 37 551 SCHARMIN Alain Messieurs 00:27:01 5 kms 11.104 5:24 44 38 579 DERUYTER Didier Messieurs 00:27:07 5 kms 11.063 5:25 45 39 556 POMILIO Yohan Messieurs 00:27:14 5 kms 11.015 5:26 46 40 6017 SOTTIEAUX Aurélien Messieurs 00:27:16 5 kms 11.002 5:27 47 41 561 HERPIN Nolan Messieurs 00:27:20 5 kms 10.975 5:28 48 42 578 BOULANGER Joël Messieurs 00:27:25 5 kms 10.942 5:29 49 7 532 OUGHCKA Ilies Dames 00:27:36 5 kms 10.869 5:31 50 43 517 FONTAINE Julien Messieurs 00:27:38 5 kms 10.856 5:31 51 8 597 CUVELIER Léonie Dames 00:27:49 5 kms 10.784 5:33 52 9 606 ARS Juliette Dames 00:27:52 5 kms 10.765 5:34 53 10 582 GILMONT Elisa Dames 00:27:57 5 kms 10.733 5:35 54 44 585 DE JONG Jonathan Messieurs 00:28:04 5 kms 10.688 5:36 55 11 590 SCHARFF Victoria Dames 00:28:18 5 kms 10.600 5:39 56 45 559 MATON Herman Messieurs 00:28:29 5 kms 10.532 5:41 57 46 6010 LORE Maxence Messieurs 00:28:56 5 kms 10.368 5:47 58 12 5022 HERION Marie-Paule Dames 00:29:00 5 kms 10.344 5:48 59 13 574 BIENFAIT Laurane Dames 00:29:02 5 kms 10.332 5:48 60 47 596 FLAMENT David Messieurs 00:29:08 5 kms 10.297 5:49 61 48 6011 MAILLET Olivier Messieurs 00:29:11 5 kms 10.279 5:50 62 49 571 LEMAIRE Julien Messieurs 00:29:13 5 kms 10.268 5:50 63 14 584 GILMONT Alice Dames 00:29:31 5 kms 10.163 5:54 64 15 612 LIEGEOIS Laurence Dames 00:29:33 5 kms 10.152 5:54 65 50 583 GILMONT Claude Messieurs 00:29:37 5 kms 10.129 5:55 66 16 607 BOUVIEZ Cindy Dames 00:29:39 5 kms 10.118 5:55 67 51 547 LAENENS Francis Messieurs 00:29:41 5 kms 10.106 5:56 68 52 541 ROGER Alexandre Messieurs 00:29:42 5 kms 10.101 5:56 69 17 567 BERTINCHAMPS Céline Dames 00:29:44 5 kms 10.089 5:56 70 53 568 VANLAUTEM Olivier Messieurs 00:29:46 5 kms 10.078 5:57 71 18 605 THUNUS Klarys Dames 00:29:49 5 kms 10.061 5:57 72 19 523 LENCLU Isabelle Dames 00:30:53 5 kms 9.713 6:10 73 54 550 HACKING Etienne Messieurs 00:30:55 5 kms 9.703 6:11 74 20 570 HEYVART Melusine Dames 00:30:58 5 kms 9.687 6:11 75 55 572 JORRIS Axel Messieurs 00:31:00 5 kms 9.677 6:12 76 56 511 HOEBEKE Valentin Messieurs 00:31:05 5 kms 9.651 6:13 77 57 513 CARBONARO Gianni Messieurs 00:31:07 5 kms 9.641 6:13 78 58 565 SELVAIS Simon Messieurs 00:31:45 5 kms 9.448 6:21 79 21 5013 SELVAIS Camille Dames 00:31:49 5 kms 9.429 6:21 80 59 533 LOONEN Willem Messieurs 00:31:57 5 kms 9.389 6:23 81 22 6006 DELREVE Natacha Dames 00:32:04 5 kms 9.355 6:24 82 60 515 DUPONT Martin Messieurs 00:32:16 5 kms 9.297 6:27 83 23 6015 BASSETTE Marie-Christine Dames 00:32:19 5 kms 9.283 6:27 84 24 5012 SBRISSA Stéphanie Dames 00:32:32 5 kms 9.221 6:30 85 25 522 BRIQUEMANNE Rose-Marie Dames 00:32:58 5 kms 9.100 6:35 86 26 6007 FERAIN Thérèse Dames 00:33:09 5 kms 9.049 6:37 87 27 503 CLAES Charlotte Dames 00:33:11 5 kms 9.040 6:38 88 28 507 DESAGRE Sabine Dames 00:33:28 5 kms 8.964 6:41 89 29 534 DASSONVILLE Michèle Dames 00:33:32 5 kms 8.946 6:42 90 30 569 HERBAGE Delphine Dames 00:34:00 5 kms 8.823 6:48 91 61 509 HOEBEKE Olivier Messieurs 00:34:08 5 kms 8.789 6:49 92 62 502 AJZEN Michel Messieurs 00:34:12 5 kms 8.771 6:50 93 63 564 DUBOIS Michaël Messieurs 00:34:44 5 kms 8.637 6:56 94 31 566 ROUSSEAUX Florence Dames 00:34:47 5 kms 8.624 6:57 95 32 6003 ADAM Annie Dames 00:34:53 5 kms 8.600 6:58 96 33 528 BLONDEL Marie-Jeanne Dames 00:34:56 5 kms 8.587 6:59 97 34 5016 THERVILLE Ariel Dames 00:34:59 5 kms 8.575 6:59 98 35 501 LEPAPE Audrey Dames 00:35:01 5 kms 8.567 7:00 99 64 543 CARRE Patrick Messieurs 00:35:16 5 kms 8.506 7:03 100 65 545 SAUTELET Sébastien Messieurs 00:35:34 5 kms 8.434 7:06 101 36 544 MAELLERT Gaëlle Dames 00:35:36 5 kms 8.426 7:07 102 66 540 BAUWENS Erik Messieurs 00:35:38 5 kms 8.419 7:07 103 67 588 MAETENS Yves Messieurs 00:35:41 5 kms 8.407 7:08 104 37 537 SCHITTEKATTE Valérie Dames 00:35:44 5 kms 8.395 7:08 105 38 539 VAN DER CAMMEN Sylvie Dames 00:35:46 5 kms 8.387 7:09 106 39 6004 HONDERMARCQ Michèle Dames 00:35:51 5 kms 8.368 7:10 107 40 518 NIYORUKUNDO Josiane Dames 00:36:06 5 kms 8.310 7:13 108 41 5019 COUVREUR Joëlle Dames 00:36:08 5 kms 8.302 7:13 109 42 5008 VERRIEST Anne Dames 00:36:14 5 kms 8.279 7:14 110 43 5009 NAPOLI Clara Dames 00:36:17 5 kms 8.268 7:15 111 68 524 VAN TIELEN Guy Messieurs 00:36:27 5 kms 8.230 7:17 112 44 604 THUNUS Laeticia Dames 00:36:30 5 kms 8.219 7:18 113 45 609 MILVILLE Bérangère Dames 00:36:35 5 kms 8.200 7:19 114 46 595 D'AMBROSIO Marie-ChristineDames 00:36:40 5 kms 8.181 7:20 115 69 602 DRESE Arnaud Messieurs 00:37:02 5 kms 8.100 7:24 116 47 538 LAMONT Adeline Dames 00:37:08 5 kms 8.078 7:25 117 70 5007 DE MYCKEME Mathieu Messieurs 00:37:16 5 kms 8.050 7:27 118 48 5005 MERTENS Coralie Dames 00:37:18 5 kms 8.042 7:27 119 49 5003 WILLOCQ Sabine Dames 00:37:21 5 kms 8.032 7:28 120 71 5015 DESALLE Joël Messieurs 00:37:39 5 kms 7.968 7:31 121 50 5014 LEMAIRE Gaétane Dames 00:37:42 5 kms 7.957 7:32 122 72 554 MAQUESTIAU Christian Messieurs 00:37:48 5 kms 7.936 7:33 123 51 555 SEVENS Catherine Dames 00:37:50 5 kms 7.929 7:34 124 52 5010 VANRENTERGHEM Marie-JeanneDames 00:37:54 5 kms 7.915 7:34 125 53 5004 DECAMPS Florence Dames 00:37:56 5 kms 7.908 7:35 126 73 546 OPDEBEECK Willy Messieurs 00:38:07 5 kms 7.870 7:37 127 54 504 GHISTE Chrysline Dames 00:38:09 5 kms 7.863 7:37 128 55 5017 WERS Sylvie Dames 00:38:31 5 kms 7.788 7:42 129 56 5018 DRUEZ Ingrid Dames 00:38:38 5 kms 7.765 7:43 130 74 601 MAIRIAUX Patrick Messieurs 00:38:46 5 kms 7.738 7:45 131 57 5011 PADGETT Catherine Dames 00:39:01 5 kms 7.689 7:48 132 58 592 RENARD Marie Dames 00:39:12 5 kms 7.653 7:50 133 75 599 VANUS Quentin Messieurs 00:39:14 5 kms 7.646 7:50 134 59 586 BOSMANS Isabelle Dames 00:39:16 5 kms 7.640 7:51 135 76 520 SOLAGNA Maxime Messieurs 00:40:12 5 kms 7.462 8:02 136 60 5006 VIRGO Sonia Dames 00:40:15 5 kms 7.453 8:03 137 77 535 DECUYPER Jean Messieurs 00:40:39 5 kms 7.380 8:07 138 61 6013 FONTEYNE Fabienne Dames 00:40:43 5 kms 7.367 8:08 139 78 6009 MICHAUX Pascal Messieurs 00:40:46 5 kms 7.358 8:09 140 79 542 BRUYNEHAUT Johan Messieurs 00:41:23 5 kms 7.249 8:16 141 80 6008 ZORZI Bruno Messieurs 00:42:33 5 kms 7.050 8:30 142 81 529 LOUVIEAUX Eustache Messieurs 00:42:36 5 kms 7.042 8:31 143 82 608 MONFORT André Messieurs 00:42:59 5 kms 6.979 8:35 144 83 5021 CLAUDE Joël Messieurs 00:45:52 5 kms 6.540 9:10 145 62 5020 PIETTE Géraldine Dames 00:45:55 5 kms 6.533 9:11 146 84 6018 WUYHESHOVEN Joshua Messieurs 00:47:32 5 kms 6.311 9:30 147 85 6014 HUNAERT Yves Messieurs 00:49:53 5 kms 6.014 9:58


Challenge Soignies 2015